Time;durP1;ratioP1;P1;durP2;ratioP2;P2;SDS_P1;SDS_P2;PMS_P1;PMS_P2;Temp;Humidity;BMP_temperature;BMP_pressure;BME280_temperature;BME280_humidity;BME280_pressure;Samples;Min_cycle;Max_cycle;Signal;HPM_P1;HPM_P2
2024/01/11 00:00:48;;;;;;;12.95;10.23;;;;;;;14.71;31.62;102352.75;4230022;28;20050;-56
2024/01/11 00:02:49;;;;;;;12.85;10.23;;;;;;;14.70;31.55;102358.97;4229896;28;20047;-55
2024/01/11 00:04:51;;;;;;;12.55;10.23;;;;;;;14.65;31.67;102360.84;4230074;28;20057;-54
2024/01/11 00:06:53;;;;;;;13.10;10.20;;;;;;;14.67;31.76;102367.00;4230223;28;20063;-56
2024/01/11 00:08:54;;;;;;;13.32;10.90;;;;;;;14.65;31.83;102363.47;4229949;28;20287;-56
2024/01/11 00:10:56;;;;;;;13.32;10.68;;;;;;;14.68;31.65;102364.31;4229929;28;20052;-57
2024/01/11 00:12:58;;;;;;;13.02;10.18;;;;;;;14.70;31.73;102361.59;4228603;28;20147;-57
2024/01/11 00:15:00;;;;;;;14.48;11.10;;;;;;;14.71;31.85;102357.19;4228809;28;20039;-55
2024/01/11 00:17:02;;;;;;;14.13;11.00;;;;;;;14.74;31.64;102357.97;4230093;28;20082;-54
2024/01/11 00:19:03;;;;;;;13.45;10.43;;;;;;;14.74;31.61;102351.78;4230244;28;20044;-56
2024/01/11 00:21:05;;;;;;;14.45;10.85;;;;;;;14.73;31.36;102344.75;4229866;28;20055;-56
2024/01/11 00:23:07;;;;;;;12.98;10.10;;;;;;;14.74;31.43;102351.78;4229417;28;20131;-52
2024/01/11 00:25:09;;;;;;;13.85;10.98;;;;;;;14.71;31.26;102350.09;4230122;28;20090;-56
2024/01/11 00:27:10;;;;;;;12.10;10.50;;;;;;;14.73;31.62;102352.69;4228621;28;20075;-56
2024/01/11 00:29:12;;;;;;;13.68;10.63;;;;;;;14.72;31.45;102353.63;4229708;28;20110;-54
2024/01/11 00:31:14;;;;;;;12.32;10.13;;;;;;;14.73;31.63;102355.34;4230256;28;20135;-55
2024/01/11 00:33:16;;;;;;;12.90;10.55;;;;;;;14.73;31.54;102358.00;4229883;28;20484;-56
2024/01/11 00:35:18;;;;;;;12.20;10.00;;;;;;;14.77;31.64;102355.22;4229734;28;20406;-55
2024/01/11 00:37:19;;;;;;;12.88;10.68;;;;;;;14.80;31.40;102363.13;4229797;28;20044;-54
2024/01/11 00:39:21;;;;;;;13.65;10.18;;;;;;;14.79;31.50;102371.09;4229635;28;20051;-55
2024/01/11 00:41:23;;;;;;;13.10;10.50;;;;;;;14.78;31.53;102367.56;4232089;28;20055;-55
2024/01/11 00:43:25;;;;;;;12.48;10.13;;;;;;;14.78;31.49;102372.88;4233123;28;20075;-55
2024/01/11 00:45:26;;;;;;;12.45;10.25;;;;;;;14.74;31.61;102376.53;4233126;28;20425;-56
2024/01/11 00:47:28;;;;;;;12.95;10.00;;;;;;;14.65;31.62;102380.28;4233187;28;20043;-55
2024/01/11 00:49:30;;;;;;;12.40;10.40;;;;;;;14.67;31.53;102378.44;4233294;28;20085;-56
2024/01/11 00:51:31;;;;;;;12.65;10.27;;;;;;;14.68;31.78;102379.34;4232969;28;20522;-54
2024/01/11 00:53:33;;;;;;;12.55;10.25;;;;;;;14.68;31.62;102387.28;4231595;28;20077;-55
2024/01/11 00:55:35;;;;;;;;;;;;;;;14.71;31.52;102391.63;4233596;28;20474;-56
2024/01/11 00:57:36;;;;;;;12.85;10.90;;;;;;;14.73;31.67;102388.03;4233053;28;20353;-54
2024/01/11 00:59:40;;;;;;;12.70;10.77;;;;;;;14.77;31.62;102387.00;4232893;28;20054;-56
2024/01/11 01:01:50;;;;;;;14.05;10.75;;;;;;;14.80;31.68;102380.75;4232788;28;20092;-56
2024/01/11 01:03:51;;;;;;;14.50;10.70;;;;;;;14.84;31.60;102385.09;4232878;28;20087;-55
2024/01/11 01:05:53;;;;;;;12.45;10.23;;;;;;;14.81;31.58;102388.69;4232935;28;20519;-55
2024/01/11 01:07:55;;;;;;;;;;;;;;;14.79;31.43;102387.00;4232845;28;20124;-55
2024/01/11 01:09:56;;;;;;;13.85;10.63;;;;;;;14.69;31.70;102370.44;4232671;28;19972;-54
2024/01/11 01:11:58;;;;;;;13.52;10.90;;;;;;;14.74;31.84;102381.81;4232767;28;20464;-51
2024/01/11 01:14:00;;;;;;;14.15;11.00;;;;;;;14.74;31.49;102381.81;4232775;28;20075;-54
2024/01/11 01:16:02;;;;;;;14.10;11.25;;;;;;;14.77;31.84;102381.72;4232654;28;20039;-53
2024/01/11 01:18:04;;;;;;;12.95;10.85;;;;;;;14.79;31.67;102387.00;4232614;28;20047;-54
2024/01/11 01:20:07;;;;;;;13.38;10.88;;;;;;;14.80;31.86;102380.75;4232529;28;20516;-56
2024/01/11 01:22:09;;;;;;;13.60;10.95;;;;;;;14.81;31.32;102379.84;4232083;28;20113;-54
2024/01/11 01:24:11;;;;;;;13.07;10.65;;;;;;;14.82;31.67;102377.19;4232451;28;20114;-54
2024/01/11 01:26:12;;;;;;;14.98;11.25;;;;;;;14.81;31.61;102383.41;4232480;28;20044;-55
2024/01/11 01:28:14;;;;;;;13.57;10.98;;;;;;;14.77;31.54;102380.88;4232524;28;20117;-56
2024/01/11 01:30:16;;;;;;;13.73;10.88;;;;;;;14.75;31.72;102390.63;4232142;28;20055;-56
2024/01/11 01:32:18;;;;;;;14.25;11.05;;;;;;;14.75;31.36;102398.56;4232564;28;20119;-56
2024/01/11 01:34:19;;;;;;;;;;;;;;;14.74;31.56;102402.13;4232782;28;20039;-55
2024/01/11 01:36:21;;;;;;;13.88;11.10;;;;;;;14.73;31.52;102400.38;4232130;28;19924;-55
2024/01/11 01:38:23;;;;;;;13.23;10.57;;;;;;;14.75;31.71;102401.22;4232232;28;20050;-56
2024/01/11 01:40:25;;;;;;;12.70;10.32;;;;;;;14.80;31.91;102404.59;4232332;28;20051;-56
2024/01/11 01:42:26;;;;;;;13.80;10.70;;;;;;;14.83;31.52;102399.25;4232312;28;20134;-55
2024/01/11 01:44:28;;;;;;;14.88;11.38;;;;;;;14.84;31.39;102412.44;4232161;28;20051;-56
2024/01/11 01:46:30;;;;;;;13.10;10.68;;;;;;;14.85;31.61;102410.66;4231920;28;20112;-56
2024/01/11 01:48:32;;;;;;;14.23;11.05;;;;;;;14.83;31.67;102417.78;4232235;28;20052;-56
2024/01/11 01:50:34;;;;;;;13.95;11.43;;;;;;;14.79;31.71;102419.63;4231454;28;20047;-56
2024/01/11 01:52:38;;;;;;;14.23;11.23;;;;;;;14.76;31.65;102430.28;4231713;28;20044;-55
2024/01/11 01:54:43;;;;;;;13.02;10.88;;;;;;;14.76;31.48;102432.94;4232016;28;20106;-55
2024/01/11 01:56:44;;;;;;;14.38;11.43;;;;;;;14.76;31.71;102438.25;4231887;28;20048;-55
2024/01/11 01:58:47;;;;;;;13.77;11.57;;;;;;;14.78;31.47;102436.44;4232091;28;20123;-55
2024/01/11 02:00:51;;;;;;;12.98;10.80;;;;;;;14.82;31.67;102440.75;4231795;28;20043;-56
2024/01/11 02:02:55;;;;;;;14.13;11.30;;;;;;;14.85;31.46;102431.88;4231824;27;20079;-56
2024/01/11 02:04:57;;;;;;;13.35;10.75;;;;;;;14.87;31.37;102437.13;4231446;28;20175;-55
2024/01/11 02:06:59;;;;;;;13.30;10.98;;;;;;;14.88;31.87;102437.06;4231729;28;20054;-56
2024/01/11 02:09:04;;;;;;;12.75;10.45;;;;;;;14.87;31.37;102440.63;4231940;28;20047;-56
2024/01/11 02:11:07;;;;;;;14.07;11.40;;;;;;;14.84;31.33;102444.22;4232067;28;20055;-59
2024/01/11 02:13:09;;;;;;;12.88;10.85;;;;;;;14.80;31.63;102442.56;4231706;28;20055;-56
2024/01/11 02:15:11;;;;;;;14.05;10.70;;;;;;;14.80;31.69;102442.56;4231586;28;20043;-56
2024/01/11 02:17:13;;;;;;;13.52;11.10;;;;;;;14.79;31.73;102448.78;4231673;28;20051;-55
2024/01/11 02:19:19;;;;;;;12.52;10.05;;;;;;;14.80;31.49;102447.88;4230125;28;20464;-56
2024/01/11 02:21:23;;;;;;;13.18;11.07;;;;;;;14.84;31.61;102457.47;4231641;28;20061;-56
2024/01/11 02:23:27;;;;;;;15.82;11.05;;;;;;;14.88;31.70;102460.91;4231482;28;20051;-56
2024/01/11 02:25:29;;;;;;;13.82;10.57;;;;;;;14.91;31.56;102455.53;4231501;28;20043;-56
2024/01/11 02:27:30;;;;;;;13.85;11.05;;;;;;;14.93;31.44;102455.50;4231501;28;20067;-55
2024/01/11 02:29:32;;;;;;;11.88;10.18;;;;;;;14.93;31.74;102460.78;4231240;28;20054;-56
2024/01/11 02:31:34;;;;;;;14.68;11.43;;;;;;;14.90;31.52;102469.69;4231243;28;20047;-56
2024/01/11 02:33:36;;;;;;;13.73;10.60;;;;;;;14.86;31.81;102462.75;4231473;28;20047;-56
2024/01/11 02:35:39;;;;;;;13.13;10.68;;;;;;;14.83;31.96;102465.47;4231499;28;20059;-57
2024/01/11 02:37:46;;;;;;;14.88;11.20;;;;;;;14.80;31.55;102465.53;4231148;28;20044;-56
2024/01/11 02:39:48;;;;;;;13.38;11.02;;;;;;;14.80;31.56;102463.75;4231241;28;20047;-55
2024/01/11 02:41:50;;;;;;;13.85;10.98;;;;;;;14.85;31.57;102464.50;4231103;28;20042;-56
2024/01/11 02:43:53;;;;;;;15.68;11.55;;;;;;;14.86;31.78;102457.44;4231250;28;20118;-56
2024/01/11 02:45:55;;;;;;;12.70;10.90;;;;;;;14.93;31.51;102466.09;4230997;28;20056;-56
2024/01/11 02:47:57;;;;;;;;;;;;;;;14.94;31.55;102462.53;4231537;28;20048;-56
2024/01/11 02:49:59;;;;;;;13.68;11.35;;;;;;;14.95;31.56;102469.59;4230806;28;19920;-56
2024/01/11 02:52:01;;;;;;;15.57;11.50;;;;;;;14.95;31.76;102470.44;4231162;28;20101;-56
2024/01/11 02:54:02;;;;;;;14.18;11.35;;;;;;;14.95;31.60;102467.78;4230800;28;20425;-56
2024/01/11 02:56:04;;;;;;;13.65;11.05;;;;;;;14.94;31.76;102466.03;4231257;28;20051;-55
2024/01/11 02:58:06;;;;;;;14.70;11.20;;;;;;;14.94;31.47;102465.19;4230886;28;20435;-55
2024/01/11 03:00:08;;;;;;;13.57;10.85;;;;;;;14.94;31.51;102468.69;4231131;28;20063;-56
2024/01/11 03:02:10;;;;;;;13.88;11.27;;;;;;;14.94;31.71;102470.50;4230911;28;20158;-56
2024/01/11 03:04:11;;;;;;;12.93;10.88;;;;;;;14.96;31.34;102466.03;4229969;28;20054;-56
2024/01/11 03:06:14;;;;;;;13.38;10.82;;;;;;;14.97;31.43;102467.75;4231021;28;20441;-57
2024/01/11 03:08:15;;;;;;;13.73;10.52;;;;;;;15.02;31.50;102468.50;4230613;28;20051;-56
2024/01/11 03:10:17;;;;;;;13.55;10.77;;;;;;;15.06;31.49;102474.59;4230718;28;20040;-56
2024/01/11 03:12:19;;;;;;;13.98;11.30;;;;;;;15.06;31.62;102472.81;4230656;28;20046;-56
2024/01/11 03:14:20;;;;;;;14.18;11.23;;;;;;;15.05;31.58;102478.16;4230602;28;20127;-56
2024/01/11 03:16:22;;;;;;;14.43;10.70;;;;;;;15.04;31.69;102473.75;4229208;28;20100;-54
2024/01/11 03:18:24;;;;;;;13.50;11.23;;;;;;;15.04;31.54;102477.28;4230378;28;20085;-57
2024/01/11 03:20:26;;;;;;;13.48;10.48;;;;;;;15.04;31.93;102481.72;4230716;28;20052;-56
2024/01/11 03:22:27;;;;;;;13.80;10.90;;;;;;;15.02;31.57;102468.50;4230572;28;20085;-56
2024/01/11 03:24:29;;;;;;;14.77;10.80;;;;;;;15.06;31.57;102479.91;4230584;28;20057;-56
2024/01/11 03:26:31;;;;;;;13.88;10.95;;;;;;;15.08;31.56;102472.75;4230560;28;20078;-55
2024/01/11 03:28:32;;;;;;;12.25;10.32;;;;;;;15.11;31.75;102478.84;4229468;28;20518;-56
2024/01/11 03:30:34;;;;;;;14.18;11.13;;;;;;;15.13;31.68;102476.19;4230236;28;20070;-56
2024/01/11 03:32:36;;;;;;;14.00;11.15;;;;;;;15.14;31.63;102477.91;4230202;28;20066;-56
2024/01/11 03:34:38;;;;;;;12.80;10.88;;;;;;;15.12;31.35;102479.75;4230543;28;20058;-56
2024/01/11 03:36:40;;;;;;;13.85;11.05;;;;;;;15.09;31.72;102485.09;4230320;28;20044;-56
2024/01/11 03:38:41;;;;;;;12.65;10.65;;;;;;;15.06;31.32;102475.47;4230410;28;20051;-57
2024/01/11 03:40:43;;;;;;;13.80;11.15;;;;;;;15.02;31.50;102479.13;4230502;28;20578;-56
2024/01/11 03:42:45;;;;;;;12.07;10.40;;;;;;;15.00;31.69;102476.47;4230129;28;20071;-55
2024/01/11 03:44:46;;;;;;;13.10;11.02;;;;;;;15.01;31.93;102483.53;4228922;28;20104;-55
2024/01/11 03:46:48;;;;;;;14.20;11.48;;;;;;;14.99;31.56;102477.41;4230170;28;20051;-53
2024/01/11 03:48:50;;;;;;;14.68;11.77;;;;;;;15.01;31.73;102478.22;4230087;28;20039;-56
2024/01/11 03:50:52;;;;;;;13.32;10.82;;;;;;;15.02;31.24;102479.13;4230195;28;20365;-52
2024/01/11 03:52:53;;;;;;;12.65;10.40;;;;;;;15.04;31.66;102487.00;4230241;28;20048;-55
2024/01/11 03:54:55;;;;;;;13.60;11.23;;;;;;;15.04;31.45;102482.56;4230281;28;20051;-55
2024/01/11 03:56:57;;;;;;;13.32;10.85;;;;;;;15.02;31.21;102482.63;4230178;28;20047;-54
2024/01/11 03:58:59;;;;;;;15.50;11.15;;;;;;;14.99;31.63;102487.13;4229940;28;20137;-58
2024/01/11 04:01:00;;;;;;;;;;;;;;;14.98;31.45;102488.91;4230301;28;20501;-56
2024/01/11 04:03:02;;;;;;;12.93;10.83;;;;;;;14.93;31.43;102479.34;4229869;28;19964;-56
2024/01/11 04:05:04;;;;;;;12.93;10.80;;;;;;;14.95;31.51;102485.47;4230256;28;20280;-56
2024/01/11 04:07:06;;;;;;;13.38;11.00;;;;;;;14.96;31.52;102481.94;4230216;28;20043;-56
2024/01/11 04:09:08;;;;;;;12.30;10.63;;;;;;;14.97;31.46;102489.81;4229903;28;20055;-56
2024/01/11 04:11:10;;;;;;;14.88;11.50;;;;;;;15.00;31.81;102491.53;4229870;28;20047;-57
2024/01/11 04:13:11;;;;;;;13.90;11.70;;;;;;;15.01;31.24;102496.78;4229888;28;20471;-55
2024/01/11 04:15:13;;;;;;;14.25;11.13;;;;;;;15.01;31.31;102498.56;4229418;28;20151;-56
2024/01/11 04:17:15;;;;;;;;;;;;;;;14.96;31.16;102501.31;4230223;28;20051;-55
2024/01/11 04:19:17;;;;;;;12.63;10.35;;;;;;;14.92;31.41;102497.03;4229797;28;19920;-55
2024/01/11 04:21:25;;;;;;;13.93;11.00;;;;;;;14.91;31.59;102497.94;4229721;28;20065;-56
2024/01/11 04:23:26;;;;;;;13.93;10.82;;;;;;;14.90;31.42;102497.94;4229620;28;20558;-56
2024/01/11 04:25:28;;;;;;;14.30;11.70;;;;;;;14.89;31.26;102498.88;4230081;28;20051;-56
2024/01/11 04:27:30;;;;;;;14.63;10.90;;;;;;;14.90;31.42;102505.91;4229742;28;20082;-56
2024/01/11 04:29:32;;;;;;;13.75;11.18;;;;;;;14.93;31.37;102506.69;4228260;28;20048;-56
2024/01/11 04:31:33;;;;;;;13.88;10.90;;;;;;;14.95;31.27;102507.53;4229656;28;20071;-56
2024/01/11 04:33:35;;;;;;;14.30;11.00;;;;;;;14.96;31.30;102511.91;4228482;28;20046;-54
2024/01/11 04:35:37;;;;;;;14.82;10.98;;;;;;;14.98;31.58;102511.88;4229603;28;20094;-56
2024/01/11 04:37:38;;;;;;;13.18;10.50;;;;;;;14.98;31.51;102512.75;4229865;28;20051;-55
2024/01/11 04:39:40;;;;;;;14.60;11.30;;;;;;;14.96;31.38;102511.91;4229696;28;20123;-56
2024/01/11 04:41:42;;;;;;;;;;;;;;;14.92;31.48;102515.56;4230116;28;20124;-55
2024/01/11 04:43:45;;;;;;;14.20;11.13;;;;;;;14.89;31.75;102515.63;4229738;28;19919;-55
2024/01/11 04:45:46;;;;;;;13.63;10.95;;;;;;;14.89;31.18;102517.44;4229441;28;20044;-55
2024/01/11 04:47:50;;;;;;;14.05;10.75;;;;;;;14.91;31.28;102513.81;4229891;28;20048;-56
2024/01/11 04:49:52;;;;;;;14.50;11.65;;;;;;;14.90;31.37;102516.50;4229633;28;20097;-56
2024/01/11 04:51:54;;;;;;;13.93;11.30;;;;;;;14.94;31.51;102510.22;4229753;28;20051;-55
2024/01/11 04:53:56;;;;;;;12.65;10.65;;;;;;;15.00;31.24;102510.06;4229607;28;20089;-56
2024/01/11 04:55:57;;;;;;;13.75;10.73;;;;;;;15.02;31.07;102519.72;4229769;28;20134;-54
2024/01/11 04:57:59;;;;;;;14.18;11.50;;;;;;;15.01;31.37;102517.97;4229624;28;20051;-55
2024/01/11 05:00:01;;;;;;;12.88;10.88;;;;;;;15.05;31.31;102523.22;4229443;28;20085;-56
2024/01/11 05:02:04;;;;;;;15.23;11.23;;;;;;;15.02;31.53;102518.84;4228333;28;20419;-56
2024/01/11 05:04:06;;;;;;;13.77;10.77;;;;;;;15.04;31.21;102519.66;4229594;28;20051;-56
2024/01/11 05:06:08;;;;;;;;;;;;;;;15.01;31.18;102525.06;4230095;28;20051;-57
2024/01/11 05:08:10;;;;;;;12.83;10.30;;;;;;;14.98;31.26;102523.38;4229547;28;19998;-56
2024/01/11 05:10:12;;;;;;;16.90;10.48;;;;;;;15.02;31.47;102529.47;4229617;28;20090;-55
2024/01/11 05:12:13;;;;;;;14.95;11.00;;;;;;;15.04;31.25;102526.75;4229372;28;20040;-56
2024/01/11 05:14:15;;;;;;;14.15;10.68;;;;;;;15.07;31.21;102521.41;4229374;28;20050;-56
2024/01/11 05:16:25;;;;;;;14.18;11.10;;;;;;;15.11;31.44;102525.69;4229673;28;20399;-55
2024/01/11 05:18:27;;;;;;;14.85;11.40;;;;;;;15.07;31.09;102513.44;4228211;28;20162;-56
2024/01/11 05:20:31;;;;;;;13.15;10.60;;;;;;;15.12;31.23;102520.34;4229333;28;20051;-54
2024/01/11 05:22:33;;;;;;;13.70;11.13;;;;;;;15.12;31.15;102522.13;4228175;28;20184;-55
2024/01/11 05:24:35;;;;;;;12.65;10.00;;;;;;;15.10;31.28;102514.22;4229590;28;20420;-56
2024/01/11 05:26:36;;;;;;;14.77;10.90;;;;;;;15.12;31.57;102516.84;4230026;28;20126;-56
2024/01/11 05:28:38;;;;;;;14.05;10.15;;;;;;;15.11;31.40;102515.94;4231958;28;20052;-55
2024/01/11 05:30:40;;;;;;;12.60;10.20;;;;;;;15.12;31.64;102511.53;4232466;28;20101;-55
2024/01/11 05:32:42;;;;;;;14.57;10.50;;;;;;;15.15;31.14;102517.63;4232484;28;20056;-55
2024/01/11 05:34:44;;;;;;;13.38;10.32;;;;;;;15.17;31.37;102514.94;4231219;28;20047;-56
2024/01/11 05:36:46;;;;;;;14.05;10.55;;;;;;;15.20;31.66;102519.28;4232305;28;20124;-57
2024/01/11 05:38:47;;;;;;;;;;;;;;;15.21;31.16;102535.13;4232871;28;20492;-57
2024/01/11 05:40:49;;;;;;;13.32;10.15;;;;;;;15.23;31.22;102532.47;4232146;28;19955;-56
2024/01/11 05:42:51;;;;;;;13.77;10.40;;;;;;;15.24;31.20;102531.56;4232014;28;20048;-50
2024/01/11 05:44:52;;;;;;;13.48;10.40;;;;;;;15.24;31.71;102547.47;4232334;28;20048;-54
2024/01/11 05:46:54;;;;;;;13.27;10.45;;;;;;;15.21;31.57;102539.56;4232384;27;20043;-56
2024/01/11 05:48:56;;;;;;;;;;;;;;;15.20;31.13;102540.47;4232432;28;20039;-56
2024/01/11 05:50:58;;;;;;;13.32;10.27;;;;;;;15.16;31.46;102537.03;4232126;28;20377;-56
2024/01/11 05:52:59;;;;;;;14.48;10.48;;;;;;;15.17;31.57;102538.78;4232114;28;20075;-56
2024/01/11 05:55:01;;;;;;;12.65;10.80;;;;;;;15.21;31.31;102537.78;4232234;28;20082;-54
2024/01/11 05:57:03;;;;;;;13.48;11.02;;;;;;;15.25;31.49;102543.88;4231730;28;20108;-55
2024/01/11 05:59:05;;;;;;;13.57;10.55;;;;;;;15.27;31.44;102542.94;4232067;28;20069;-55
2024/01/11 06:01:07;;;;;;;13.20;10.80;;;;;;;15.27;31.53;102545.56;4231812;28;20078;-56
2024/01/11 06:03:11;;;;;;;;;;;;;;;15.27;31.06;102548.22;4232312;28;20114;-57
2024/01/11 06:05:13;;;;;;;13.35;10.18;;;;;;;15.23;31.39;102549.22;4232117;28;19996;-54
2024/01/11 06:07:15;;;;;;;13.13;10.65;;;;;;;15.19;31.53;102550.22;4231748;28;20051;-52
2024/01/11 06:09:17;;;;;;;14.50;11.25;;;;;;;15.16;31.44;102561.78;4232151;28;20079;-56
2024/01/11 06:11:18;;;;;;;13.63;10.60;;;;;;;15.16;31.54;102563.53;4230322;28;20044;-56
2024/01/11 06:13:20;;;;;;;14.23;11.32;;;;;;;15.14;31.36;102578.59;4231746;28;20113;-56
2024/01/11 06:15:22;;;;;;;12.25;10.45;;;;;;;15.15;31.26;102572.41;4231873;27;20490;-56
2024/01/11 06:17:23;;;;;;;13.57;10.75;;;;;;;15.17;31.53;102582.06;4231841;28;20420;-56
2024/01/11 06:19:25;;;;;;;13.25;10.40;;;;;;;15.21;31.13;102585.50;4231799;28;20127;-55
2024/01/11 06:21:28;;;;;;;14.35;10.55;;;;;;;15.23;31.44;102588.13;4231525;28;20440;-56
2024/01/11 06:23:29;;;;;;;13.60;10.60;;;;;;;15.23;31.50;102586.34;4231592;27;20123;-56
2024/01/11 06:25:31;;;;;;;13.70;10.52;;;;;;;15.23;31.05;102583.69;4231553;28;20054;-55
2024/01/11 06:27:33;;;;;;;14.15;11.50;;;;;;;15.21;31.40;102580.19;4231176;28;20071;-53
2024/01/11 06:29:34;;;;;;;14.98;10.80;;;;;;;15.22;31.52;102579.28;4231365;28;20055;-56
2024/01/11 06:31:36;;;;;;;12.80;10.13;;;;;;;15.22;31.70;102576.63;4231603;28;20089;-55
2024/01/11 06:33:38;;;;;;;14.23;11.70;;;;;;;15.23;31.57;102575.72;4231484;28;20047;-55
2024/01/11 06:35:40;;;;;;;13.02;10.13;;;;;;;15.25;31.55;102580.97;4231563;28;20050;-55
2024/01/11 06:37:41;;;;;;;13.05;10.48;;;;;;;15.26;31.40;102593.34;4231526;28;20055;-55
2024/01/11 06:39:43;;;;;;;14.40;10.07;;;;;;;15.29;31.26;102601.22;4231476;28;20050;-56
2024/01/11 06:41:45;;;;;;;12.43;10.63;;;;;;;15.31;31.34;102608.22;4230769;28;20048;-55
2024/01/11 06:43:47;;;;;;;13.55;9.98;;;;;;;15.32;31.15;102614.38;4231042;28;20426;-56
2024/01/11 06:45:48;;;;;;;13.80;10.30;;;;;;;15.33;31.28;102626.72;4231096;28;20051;-56
2024/01/11 06:47:50;;;;;;;15.07;10.95;;;;;;;15.31;31.19;102628.53;4231361;28;20480;-56
2024/01/11 06:49:52;;;;;;;14.15;11.13;;;;;;;15.26;31.27;102623.38;4231193;28;20477;-56
2024/01/11 06:51:53;;;;;;;13.38;10.75;;;;;;;15.26;31.55;102628.69;4231191;28;20105;-55
2024/01/11 06:53:55;;;;;;;14.65;10.73;;;;;;;15.25;31.47;102636.66;4231085;28;20050;-54
2024/01/11 06:55:56;;;;;;;14.35;10.32;;;;;;;15.22;31.31;102640.25;4230887;28;20056;-55
2024/01/11 06:57:59;;;;;;;13.20;10.60;;;;;;;15.25;31.54;102634.88;4231282;28;20052;-56
2024/01/11 07:00:00;;;;;;;;;;;;;;;15.28;31.34;102649.84;4231505;28;20055;-56
2024/01/11 07:02:03;;;;;;;12.07;9.95;;;;;;;15.26;31.37;102647.25;4231183;28;19981;-56
2024/01/11 07:04:04;;;;;;;14.27;10.88;;;;;;;15.32;31.39;102646.19;4230753;28;20040;-57
2024/01/11 07:06:07;;;;;;;12.07;9.68;;;;;;;15.32;31.28;102640.91;4230978;28;20138;-56
2024/01/11 07:08:08;;;;;;;12.50;10.43;;;;;;;15.34;31.18;102644.38;4230907;28;20473;-56
2024/01/11 07:10:10;;;;;;;12.88;10.63;;;;;;;15.32;30.99;102639.13;4230655;28;20055;-55
2024/01/11 07:12:12;;;;;;;12.60;10.52;;;;;;;15.32;31.52;102640.91;4230752;28;20097;-55
2024/01/11 07:14:14;;;;;;;11.77;10.15;;;;;;;15.29;31.34;102638.34;4230769;28;20043;-56
2024/01/11 07:16:15;;;;;;;13.68;10.73;;;;;;;15.23;31.51;102623.44;4229665;28;20055;-55
2024/01/11 07:18:17;;;;;;;13.05;10.50;;;;;;;15.29;31.62;102635.69;4230909;28;20409;-55
2024/01/11 07:20:19;;;;;;;13.68;10.32;;;;;;;15.30;31.21;102643.59;4230576;28;20071;-55
2024/01/11 07:22:21;;;;;;;12.27;10.48;;;;;;;15.35;31.60;102648.78;4230683;28;20047;-56
2024/01/11 07:24:22;;;;;;;13.98;10.43;;;;;;;15.37;31.42;102657.59;4230290;28;20051;-56
2024/01/11 07:26:24;;;;;;;12.13;9.70;;;;;;;15.40;31.26;102653.97;4230818;28;20482;-55
2024/01/11 07:28:26;;;;;;;13.35;10.30;;;;;;;15.41;31.50;102655.72;4230553;28;20047;-55
2024/01/11 07:30:28;;;;;;;12.60;10.07;;;;;;;15.43;31.55;102669.78;4230207;28;20064;-55
2024/01/11 07:32:30;;;;;;;13.00;10.40;;;;;;;15.39;31.61;102666.34;4230716;28;20071;-56
2024/01/11 07:34:32;;;;;;;13.23;10.18;;;;;;;15.39;31.24;102668.16;4230551;28;20086;-56
2024/01/11 07:36:34;;;;;;;13.00;10.15;;;;;;;15.35;31.51;102667.34;4230421;28;20497;-52
2024/01/11 07:38:36;;;;;;;12.90;10.32;;;;;;;15.36;31.62;102674.41;4230019;28;20065;-55
2024/01/11 07:40:37;;;;;;;14.95;10.27;;;;;;;15.34;31.40;102666.47;4230645;28;20048;-50
2024/01/11 07:42:43;;;;;;;15.43;10.65;;;;;;;15.35;31.48;102662.03;4229961;28;20047;-55
2024/01/11 07:44:45;;;;;;;15.60;10.88;;;;;;;15.36;31.26;102670.84;4230552;28;20059;-55
2024/01/11 07:46:47;;;;;;;16.80;10.45;;;;;;;15.37;31.78;102667.31;4230433;28;20047;-56
2024/01/11 07:48:55;;;;;;;15.20;9.90;;;;;;;15.36;31.59;102669.09;4230111;28;20489;-56
2024/01/11 07:50:58;;;;;;;14.70;11.15;;;;;;;15.36;31.46;102666.44;4228795;28;20058;-55
2024/01/11 07:52:59;;;;;;;14.70;10.38;;;;;;;15.34;31.65;102671.75;4229947;28;20126;-56
2024/01/11 07:55:06;;;;;;;15.35;10.68;;;;;;;15.34;31.60;102682.38;4228937;28;20101;-56
2024/01/11 07:57:07;;;;;;;16.27;11.30;;;;;;;15.30;31.36;102688.66;4230261;28;20137;-56
2024/01/11 07:59:14;;;;;;;14.35;10.45;;;;;;;15.31;31.65;102687.75;4230228;28;20494;-55
2024/01/11 08:01:16;;;;;;;15.25;11.07;;;;;;;15.28;31.56;102687.81;4230071;28;20051;-56
2024/01/11 08:03:18;;;;;;;15.85;10.55;;;;;;;15.31;31.58;102686.88;4230175;28;20047;-56
2024/01/11 08:05:20;;;;;;;13.95;10.43;;;;;;;15.30;31.61;102691.31;4229865;28;20092;-56
2024/01/11 08:07:22;;;;;;;13.52;10.10;;;;;;;15.33;31.32;102688.59;4229653;28;20059;-56
2024/01/11 08:09:23;;;;;;;15.25;11.15;;;;;;;15.38;31.37;102687.59;4230098;28;20044;-56
2024/01/11 08:11:25;;;;;;;14.90;10.68;;;;;;;15.41;31.45;102695.50;4230057;28;20468;-56
2024/01/11 08:13:31;;;;;;;13.50;10.25;;;;;;;15.41;31.41;102695.50;4230040;28;20093;-56
2024/01/11 08:15:33;;;;;;;14.65;11.00;;;;;;;15.41;31.42;102684.91;4230108;28;20043;-56
2024/01/11 08:17:34;;;;;;;13.88;10.32;;;;;;;15.38;31.22;102688.47;4229940;28;20058;-56
2024/01/11 08:19:39;;;;;;;14.10;10.80;;;;;;;15.39;31.45;102689.34;4229798;28;20062;-56
2024/01/11 08:21:41;;;;;;;15.93;10.85;;;;;;;15.38;31.43;102680.50;4228531;28;20812;-53
2024/01/11 08:23:48;;;;;;;14.57;10.75;;;;;;;15.40;31.85;102691.97;4229780;28;20131;-54
2024/01/11 08:25:52;;;;;;;15.02;10.60;;;;;;;15.42;31.70;102681.31;4229811;28;20053;-56
2024/01/11 08:27:54;;;;;;;14.60;10.43;;;;;;;15.45;31.66;102683.91;4229997;28;20058;-56
2024/01/11 08:29:56;;;;;;;14.65;10.13;;;;;;;15.45;31.55;102681.25;4229601;28;20139;-55
2024/01/11 08:31:57;;;;;;;16.00;10.27;;;;;;;15.49;31.45;102701.47;4230032;28;20075;-57
2024/01/11 08:34:00;;;;;;;15.68;11.43;;;;;;;15.51;31.58;102704.09;4229792;28;20119;-57
2024/01/11 08:36:06;;;;;;;15.27;11.13;;;;;;;15.48;31.59;102692.66;4229712;28;20124;-55
2024/01/11 08:38:09;;;;;;;14.70;10.55;;;;;;;15.47;31.61;102695.34;4229939;28;20067;-56
2024/01/11 08:40:11;;;;;;;15.50;10.60;;;;;;;15.46;31.49;102698.91;4229817;28;20044;-56
2024/01/11 08:42:15;;;;;;;15.00;10.80;;;;;;;15.44;31.56;102698.94;4229853;28;20158;-55
2024/01/11 08:44:18;;;;;;;13.75;10.43;;;;;;;15.42;31.27;102702.53;4229653;28;20048;-54
2024/01/11 08:46:26;;;;;;;15.52;11.02;;;;;;;15.46;31.47;102705.06;4229993;28;20486;-56
2024/01/11 08:48:28;;;;;;;15.85;10.50;;;;;;;15.46;31.53;102706.84;4229771;28;20468;-56
2024/01/11 08:50:30;;;;;;;14.88;10.80;;;;;;;15.46;31.07;102696.25;4229500;28;20047;-56
2024/01/11 08:52:33;;;;;;;15.48;10.55;;;;;;;15.48;31.24;102697.94;4228390;28;20086;-56
2024/01/11 08:54:35;;;;;;;18.17;11.02;;;;;;;15.51;31.03;102709.41;4229805;28;20159;-56
2024/01/11 08:56:36;;;;;;;14.15;10.27;;;;;;;15.52;31.50;102705.81;4229759;28;20048;-57
2024/01/11 08:58:40;;;;;;;17.20;11.02;;;;;;;15.51;31.25;102710.25;4229823;28;20058;-57
2024/01/11 09:00:43;;;;;;;14.98;10.77;;;;;;;15.49;31.31;102702.34;4229500;28;20056;-56
2024/01/11 09:02:46;;;;;;;14.07;10.98;;;;;;;15.48;31.27;102705.03;4232628;28;20067;-55
2024/01/11 09:04:48;;;;;;;17.55;11.38;;;;;;;15.48;31.25;102713.88;4232770;28;20043;-55
2024/01/11 09:06:50;;;;;;;14.85;11.32;;;;;;;15.46;31.12;102712.16;4232460;28;20032;-56
2024/01/11 09:08:52;;;;;;;15.30;10.95;;;;;;;15.47;31.29;102725.38;4232940;28;20053;-56
2024/01/11 09:10:54;;;;;;;18.02;12.13;;;;;;;15.51;31.05;102722.66;4232912;28;20145;-56
2024/01/11 09:12:55;;;;;;;15.32;10.60;;;;;;;15.52;31.20;102727.03;4233061;28;20047;-55
2024/01/11 09:14:57;;;;;;;13.75;10.88;;;;;;;15.53;31.27;102732.31;4232921;28;20067;-56
2024/01/11 09:16:59;;;;;;;14.90;11.20;;;;;;;15.52;31.07;102729.69;4232770;28;20067;-56